sensor_id;sensor_type;location;lat;lon;timestamp;P1;durP1;ratioP1;P2;durP2;ratioP2
61741;SDS011;47650;49.848;9.620;2023-08-30T00:01:44;13.02;;;11.40;;
61741;SDS011;47650;49.848;9.620;2023-08-30T00:04:10;10.57;;;9.57;;
61741;SDS011;47650;49.848;9.620;2023-08-30T00:06:36;10.77;;;7.35;;
61741;SDS011;47650;49.848;9.620;2023-08-30T00:09:02;9.38;;;8.40;;
61741;SDS011;47650;49.848;9.620;2023-08-30T00:11:29;12.05;;;9.52;;
61741;SDS011;47650;49.848;9.620;2023-08-30T00:14:06;8.82;;;7.93;;
61741;SDS011;47650;49.848;9.620;2023-08-30T00:16:32;13.30;;;9.15;;
61741;SDS011;47650;49.848;9.620;2023-08-30T00:19:06;11.82;;;8.80;;
61741;SDS011;47650;49.848;9.620;2023-08-30T00:21:32;9.63;;;7.80;;
61741;SDS011;47650;49.848;9.620;2023-08-30T00:23:59;13.48;;;11.13;;
61741;SDS011;47650;49.848;9.620;2023-08-30T00:26:24;10.50;;;8.98;;
61741;SDS011;47650;49.848;9.620;2023-08-30T00:28:51;13.55;;;10.00;;
61741;SDS011;47650;49.848;9.620;2023-08-30T00:31:17;12.40;;;10.73;;
61741;SDS011;47650;49.848;9.620;2023-08-30T00:33:46;10.93;;;9.77;;
61741;SDS011;47650;49.848;9.620;2023-08-30T00:36:14;9.93;;;8.95;;
61741;SDS011;47650;49.848;9.620;2023-08-30T00:38:40;16.38;;;11.57;;
61741;SDS011;47650;49.848;9.620;2023-08-30T00:41:06;11.70;;;8.95;;
61741;SDS011;47650;49.848;9.620;2023-08-30T00:43:32;11.65;;;9.55;;
61741;SDS011;47650;49.848;9.620;2023-08-30T00:45:58;14.40;;;11.10;;
61741;SDS011;47650;49.848;9.620;2023-08-30T00:48:24;15.77;;;9.93;;
61741;SDS011;47650;49.848;9.620;2023-08-30T00:50:50;16.52;;;11.63;;
61741;SDS011;47650;49.848;9.620;2023-08-30T00:53:17;13.85;;;10.18;;
61741;SDS011;47650;49.848;9.620;2023-08-30T00:55:42;16.17;;;11.68;;
61741;SDS011;47650;49.848;9.620;2023-08-30T00:58:12;15.15;;;11.68;;
61741;SDS011;47650;49.848;9.620;2023-08-30T01:00:40;27.02;;;16.88;;
61741;SDS011;47650;49.848;9.620;2023-08-30T01:03:05;21.48;;;16.13;;
61741;SDS011;47650;49.848;9.620;2023-08-30T01:05:32;99.00;;;30.88;;
61741;SDS011;47650;49.848;9.620;2023-08-30T01:08:03;43.33;;;23.88;;
61741;SDS011;47650;49.848;9.620;2023-08-30T01:10:39;52.63;;;26.88;;
61741;SDS011;47650;49.848;9.620;2023-08-30T01:13:23;52.13;;;25.60;;
61741;SDS011;47650;49.848;9.620;2023-08-30T01:15:54;35.65;;;21.08;;
61741;SDS011;47650;49.848;9.620;2023-08-30T01:18:21;32.35;;;19.55;;
61741;SDS011;47650;49.848;9.620;2023-08-30T01:20:53;36.47;;;20.10;;
61741;SDS011;47650;49.848;9.620;2023-08-30T01:23:24;30.02;;;19.17;;
61741;SDS011;47650;49.848;9.620;2023-08-30T01:29:06;32.70;;;21.08;;
61741;SDS011;47650;49.848;9.620;2023-08-30T01:31:33;38.13;;;21.17;;
61741;SDS011;47650;49.848;9.620;2023-08-30T01:34:04;47.78;;;25.88;;
61741;SDS011;47650;49.848;9.620;2023-08-30T01:36:33;40.58;;;23.23;;
61741;SDS011;47650;49.848;9.620;2023-08-30T01:38:59;38.75;;;25.80;;
61741;SDS011;47650;49.848;9.620;2023-08-30T01:41:30;82.53;;;26.17;;
61741;SDS011;47650;49.848;9.620;2023-08-30T01:43:58;347.25;;;49.67;;
61741;SDS011;47650;49.848;9.620;2023-08-30T01:46:25;268.27;;;46.28;;
61741;SDS011;47650;49.848;9.620;2023-08-30T01:48:51;403.40;;;57.20;;
61741;SDS011;47650;49.848;9.620;2023-08-30T01:51:20;293.30;;;44.92;;
61741;SDS011;47650;49.848;9.620;2023-08-30T01:53:48;386.80;;;51.92;;
61741;SDS011;47650;49.848;9.620;2023-08-30T01:56:15;138.15;;;33.20;;
61741;SDS011;47650;49.848;9.620;2023-08-30T01:58:43;188.82;;;35.65;;
61741;SDS011;47650;49.848;9.620;2023-08-30T02:01:09;506.65;;;57.63;;
61741;SDS011;47650;49.848;9.620;2023-08-30T02:03:35;345.08;;;49.28;;
61741;SDS011;47650;49.848;9.620;2023-08-30T02:08:41;344.02;;;44.50;;
61741;SDS011;47650;49.848;9.620;2023-08-30T02:11:23;297.63;;;43.90;;
61741;SDS011;47650;49.848;9.620;2023-08-30T02:13:54;101.20;;;30.83;;
61741;SDS011;47650;49.848;9.620;2023-08-30T02:16:22;147.30;;;32.55;;
61741;SDS011;47650;49.848;9.620;2023-08-30T02:18:50;86.82;;;30.40;;
61741;SDS011;47650;49.848;9.620;2023-08-30T02:21:17;410.63;;;52.75;;
61741;SDS011;47650;49.848;9.620;2023-08-30T02:23:44;247.18;;;35.92;;
61741;SDS011;47650;49.848;9.620;2023-08-30T02:26:15;148.70;;;34.70;;
61741;SDS011;47650;49.848;9.620;2023-08-30T02:28:41;193.32;;;39.47;;
61741;SDS011;47650;49.848;9.620;2023-08-30T02:31:07;132.00;;;33.70;;
61741;SDS011;47650;49.848;9.620;2023-08-30T02:33:32;120.85;;;32.17;;
61741;SDS011;47650;49.848;9.620;2023-08-30T02:35:58;199.60;;;38.25;;
61741;SDS011;47650;49.848;9.620;2023-08-30T02:38:23;99.05;;;29.33;;
61741;SDS011;47650;49.848;9.620;2023-08-30T02:40:54;342.88;;;49.95;;
61741;SDS011;47650;49.848;9.620;2023-08-30T02:43:21;151.95;;;38.35;;
61741;SDS011;47650;49.848;9.620;2023-08-30T02:45:47;227.48;;;44.50;;
61741;SDS011;47650;49.848;9.620;2023-08-30T02:48:18;83.18;;;34.28;;
61741;SDS011;47650;49.848;9.620;2023-08-30T02:50:43;118.85;;;29.88;;
61741;SDS011;47650;49.848;9.620;2023-08-30T02:53:11;143.05;;;33.72;;
61741;SDS011;47650;49.848;9.620;2023-08-30T02:55:36;145.98;;;37.13;;
61741;SDS011;47650;49.848;9.620;2023-08-30T02:58:02;53.45;;;27.30;;
61741;SDS011;47650;49.848;9.620;2023-08-30T03:00:28;110.68;;;34.97;;
61741;SDS011;47650;49.848;9.620;2023-08-30T03:02:55;106.53;;;40.58;;
61741;SDS011;47650;49.848;9.620;2023-08-30T03:05:21;129.90;;;32.55;;
61741;SDS011;47650;49.848;9.620;2023-08-30T03:07:49;133.57;;;38.97;;
61741;SDS011;47650;49.848;9.620;2023-08-30T03:10:16;66.47;;;32.15;;
61741;SDS011;47650;49.848;9.620;2023-08-30T03:12:41;79.60;;;36.95;;
61741;SDS011;47650;49.848;9.620;2023-08-30T03:15:08;108.82;;;39.05;;
61741;SDS011;47650;49.848;9.620;2023-08-30T03:17:35;64.05;;;24.30;;
61741;SDS011;47650;49.848;9.620;2023-08-30T03:20:00;82.15;;;26.48;;
61741;SDS011;47650;49.848;9.620;2023-08-30T03:22:35;147.35;;;31.63;;
61741;SDS011;47650;49.848;9.620;2023-08-30T03:25:04;85.18;;;22.60;;
61741;SDS011;47650;49.848;9.620;2023-08-30T03:27:35;95.50;;;31.25;;
61741;SDS011;47650;49.848;9.620;2023-08-30T03:30:01;236.13;;;34.38;;
61741;SDS011;47650;49.848;9.620;2023-08-30T03:32:27;236.95;;;32.95;;
61741;SDS011;47650;49.848;9.620;2023-08-30T03:34:54;171.98;;;24.42;;
61741;SDS011;47650;49.848;9.620;2023-08-30T03:37:23;91.60;;;24.77;;
61741;SDS011;47650;49.848;9.620;2023-08-30T03:39:50;160.07;;;31.77;;
61741;SDS011;47650;49.848;9.620;2023-08-30T03:42:16;133.70;;;32.85;;
61741;SDS011;47650;49.848;9.620;2023-08-30T03:44:43;185.95;;;30.55;;
61741;SDS011;47650;49.848;9.620;2023-08-30T03:47:09;187.73;;;28.50;;
61741;SDS011;47650;49.848;9.620;2023-08-30T03:49:35;97.13;;;21.50;;
61741;SDS011;47650;49.848;9.620;2023-08-30T03:52:04;40.17;;;20.08;;
61741;SDS011;47650;49.848;9.620;2023-08-30T03:54:29;59.70;;;22.38;;
61741;SDS011;47650;49.848;9.620;2023-08-30T03:56:56;122.63;;;20.85;;
61741;SDS011;47650;49.848;9.620;2023-08-30T03:59:21;158.85;;;20.52;;
61741;SDS011;47650;49.848;9.620;2023-08-30T04:01:48;129.85;;;17.75;;
61741;SDS011;47650;49.848;9.620;2023-08-30T04:04:16;140.48;;;22.00;;
61741;SDS011;47650;49.848;9.620;2023-08-30T04:06:43;123.43;;;19.38;;
61741;SDS011;47650;49.848;9.620;2023-08-30T04:09:09;69.28;;;17.67;;
61741;SDS011;47650;49.848;9.620;2023-08-30T04:11:35;179.10;;;17.88;;
61741;SDS011;47650;49.848;9.620;2023-08-30T04:14:02;136.50;;;19.00;;
61741;SDS011;47650;49.848;9.620;2023-08-30T04:16:27;234.98;;;21.90;;
61741;SDS011;47650;49.848;9.620;2023-08-30T04:18:54;90.55;;;20.80;;
61741;SDS011;47650;49.848;9.620;2023-08-30T04:21:20;192.35;;;25.52;;
61741;SDS011;47650;49.848;9.620;2023-08-30T04:23:46;138.38;;;28.25;;
61741;SDS011;47650;49.848;9.620;2023-08-30T04:26:12;223.55;;;32.75;;
61741;SDS011;47650;49.848;9.620;2023-08-30T04:28:39;132.32;;;30.92;;
61741;SDS011;47650;49.848;9.620;2023-08-30T04:31:05;136.52;;;28.52;;
61741;SDS011;47650;49.848;9.620;2023-08-30T04:33:32;251.27;;;21.67;;
61741;SDS011;47650;49.848;9.620;2023-08-30T04:35:57;241.23;;;34.17;;
61741;SDS011;47650;49.848;9.620;2023-08-30T04:38:25;76.63;;;24.63;;
61741;SDS011;47650;49.848;9.620;2023-08-30T04:40:56;147.77;;;27.42;;
61741;SDS011;47650;49.848;9.620;2023-08-30T04:43:22;119.07;;;27.00;;
61741;SDS011;47650;49.848;9.620;2023-08-30T04:45:50;177.45;;;28.35;;
61741;SDS011;47650;49.848;9.620;2023-08-30T04:48:15;429.25;;;56.70;;
61741;SDS011;47650;49.848;9.620;2023-08-30T04:50:45;97.85;;;25.98;;
61741;SDS011;47650;49.848;9.620;2023-08-30T04:53:11;114.70;;;27.15;;
61741;SDS011;47650;49.848;9.620;2023-08-30T04:55:42;125.90;;;21.17;;
61741;SDS011;47650;49.848;9.620;2023-08-30T04:58:07;89.80;;;19.48;;
61741;SDS011;47650;49.848;9.620;2023-08-30T05:00:33;157.05;;;22.83;;
61741;SDS011;47650;49.848;9.620;2023-08-30T05:02:58;181.93;;;30.05;;
61741;SDS011;47650;49.848;9.620;2023-08-30T05:05:24;174.68;;;23.85;;
61741;SDS011;47650;49.848;9.620;2023-08-30T05:07:50;144.73;;;28.75;;
61741;SDS011;47650;49.848;9.620;2023-08-30T05:10:16;83.05;;;20.00;;
61741;SDS011;47650;49.848;9.620;2023-08-30T05:12:41;86.35;;;18.75;;
61741;SDS011;47650;49.848;9.620;2023-08-30T05:15:09;58.75;;;19.77;;
61741;SDS011;47650;49.848;9.620;2023-08-30T05:17:37;103.38;;;25.38;;
61741;SDS011;47650;49.848;9.620;2023-08-30T05:20:04;30.60;;;18.35;;
61741;SDS011;47650;49.848;9.620;2023-08-30T05:22:30;27.00;;;16.95;;
61741;SDS011;47650;49.848;9.620;2023-08-30T05:24:56;49.35;;;17.77;;
61741;SDS011;47650;49.848;9.620;2023-08-30T05:27:22;185.43;;;24.38;;
61741;SDS011;47650;49.848;9.620;2023-08-30T05:29:47;75.55;;;15.23;;
61741;SDS011;47650;49.848;9.620;2023-08-30T05:32:14;97.95;;;15.55;;
61741;SDS011;47650;49.848;9.620;2023-08-30T05:34:39;99.10;;;16.95;;
61741;SDS011;47650;49.848;9.620;2023-08-30T05:37:07;74.93;;;19.05;;
61741;SDS011;47650;49.848;9.620;2023-08-30T05:39:32;54.80;;;18.45;;
61741;SDS011;47650;49.848;9.620;2023-08-30T05:41:59;58.60;;;17.73;;
61741;SDS011;47650;49.848;9.620;2023-08-30T05:44:30;42.85;;;18.95;;
61741;SDS011;47650;49.848;9.620;2023-08-30T05:46:55;61.30;;;22.00;;
61741;SDS011;47650;49.848;9.620;2023-08-30T05:49:21;40.95;;;19.13;;
61741;SDS011;47650;49.848;9.620;2023-08-30T05:51:48;50.22;;;19.33;;
61741;SDS011;47650;49.848;9.620;2023-08-30T05:54:14;49.40;;;20.90;;
61741;SDS011;47650;49.848;9.620;2023-08-30T05:56:39;101.70;;;23.73;;
61741;SDS011;47650;49.848;9.620;2023-08-30T06:01:34;126.13;;;25.08;;
61741;SDS011;47650;49.848;9.620;2023-08-30T06:04:00;49.22;;;18.75;;
61741;SDS011;47650;49.848;9.620;2023-08-30T06:06:27;32.92;;;19.65;;
61741;SDS011;47650;49.848;9.620;2023-08-30T06:08:56;39.38;;;19.35;;
61741;SDS011;47650;49.848;9.620;2023-08-30T06:11:23;35.42;;;20.65;;
61741;SDS011;47650;49.848;9.620;2023-08-30T06:13:48;24.17;;;17.80;;
61741;SDS011;47650;49.848;9.620;2023-08-30T06:16:14;29.95;;;16.42;;
61741;SDS011;47650;49.848;9.620;2023-08-30T06:18:42;17.45;;;15.63;;
61741;SDS011;47650;49.848;9.620;2023-08-30T06:21:14;30.60;;;20.10;;
61741;SDS011;47650;49.848;9.620;2023-08-30T06:23:40;20.77;;;17.42;;
61741;SDS011;47650;49.848;9.620;2023-08-30T06:26:06;16.02;;;14.32;;
61741;SDS011;47650;49.848;9.620;2023-08-30T06:28:33;18.95;;;16.25;;
61741;SDS011;47650;49.848;9.620;2023-08-30T06:31:04;23.30;;;17.95;;
61741;SDS011;47650;49.848;9.620;2023-08-30T06:33:29;14.52;;;13.02;;
61741;SDS011;47650;49.848;9.620;2023-08-30T06:35:55;14.25;;;12.77;;
61741;SDS011;47650;49.848;9.620;2023-08-30T06:38:22;13.63;;;12.30;;
61741;SDS011;47650;49.848;9.620;2023-08-30T06:40:47;13.00;;;11.70;;
61741;SDS011;47650;49.848;9.620;2023-08-30T06:43:14;12.35;;;11.25;;
61741;SDS011;47650;49.848;9.620;2023-08-30T06:45:40;12.15;;;10.93;;
61741;SDS011;47650;49.848;9.620;2023-08-30T06:48:09;15.07;;;13.57;;
61741;SDS011;47650;49.848;9.620;2023-08-30T06:50:36;13.68;;;12.40;;
61741;SDS011;47650;49.848;9.620;2023-08-30T06:53:07;13.85;;;11.23;;
61741;SDS011;47650;49.848;9.620;2023-08-30T06:55:32;11.80;;;10.80;;
61741;SDS011;47650;49.848;9.620;2023-08-30T06:58:01;12.57;;;11.43;;
61741;SDS011;47650;49.848;9.620;2023-08-30T07:00:33;13.02;;;11.77;;
61741;SDS011;47650;49.848;9.620;2023-08-30T07:02:58;13.98;;;12.77;;
61741;SDS011;47650;49.848;9.620;2023-08-30T07:05:24;12.52;;;11.45;;
61741;SDS011;47650;49.848;9.620;2023-08-30T07:07:49;12.75;;;11.43;;
61741;SDS011;47650;49.848;9.620;2023-08-30T07:10:14;11.88;;;10.82;;
61741;SDS011;47650;49.848;9.620;2023-08-30T07:12:40;11.63;;;10.43;;
61741;SDS011;47650;49.848;9.620;2023-08-30T07:15:05;13.32;;;12.07;;
61741;SDS011;47650;49.848;9.620;2023-08-30T07:17:31;11.38;;;10.35;;
61741;SDS011;47650;49.848;9.620;2023-08-30T07:19:56;7.88;;;7.18;;
61741;SDS011;47650;49.848;9.620;2023-08-30T07:22:21;9.85;;;8.95;;
61741;SDS011;47650;49.848;9.620;2023-08-30T07:24:47;7.72;;;6.35;;
61741;SDS011;47650;49.848;9.620;2023-08-30T07:27:13;6.95;;;6.30;;
61741;SDS011;47650;49.848;9.620;2023-08-30T07:29:40;6.47;;;5.70;;
61741;SDS011;47650;49.848;9.620;2023-08-30T07:32:06;7.57;;;6.53;;
61741;SDS011;47650;49.848;9.620;2023-08-30T07:34:34;8.43;;;6.40;;
61741;SDS011;47650;49.848;9.620;2023-08-30T07:37:03;8.32;;;6.97;;
61741;SDS011;47650;49.848;9.620;2023-08-30T07:39:28;6.90;;;6.20;;
61741;SDS011;47650;49.848;9.620;2023-08-30T07:41:55;5.50;;;4.95;;
61741;SDS011;47650;49.848;9.620;2023-08-30T07:44:21;5.03;;;4.55;;
61741;SDS011;47650;49.848;9.620;2023-08-30T07:46:46;5.57;;;4.03;;
61741;SDS011;47650;49.848;9.620;2023-08-30T07:49:13;7.65;;;5.13;;
61741;SDS011;47650;49.848;9.620;2023-08-30T07:51:38;4.47;;;4.00;;
61741;SDS011;47650;49.848;9.620;2023-08-30T07:54:04;6.47;;;5.80;;
61741;SDS011;47650;49.848;9.620;2023-08-30T07:56:29;5.68;;;4.80;;
61741;SDS011;47650;49.848;9.620;2023-08-30T07:58:56;7.05;;;4.90;;
61741;SDS011;47650;49.848;9.620;2023-08-30T08:01:24;6.13;;;5.00;;
61741;SDS011;47650;49.848;9.620;2023-08-30T08:03:50;7.32;;;4.20;;
61741;SDS011;47650;49.848;9.620;2023-08-30T08:06:16;6.47;;;4.57;;
61741;SDS011;47650;49.848;9.620;2023-08-30T08:08:41;4.90;;;4.40;;
61741;SDS011;47650;49.848;9.620;2023-08-30T08:11:08;5.35;;;4.85;;
61741;SDS011;47650;49.848;9.620;2023-08-30T08:13:34;6.47;;;4.93;;
61741;SDS011;47650;49.848;9.620;2023-08-30T08:16:00;7.00;;;5.45;;
61741;SDS011;47650;49.848;9.620;2023-08-30T08:18:33;6.97;;;5.10;;
61741;SDS011;47650;49.848;9.620;2023-08-30T08:20:59;6.35;;;5.75;;
61741;SDS011;47650;49.848;9.620;2023-08-30T08:23:25;6.13;;;5.53;;
61741;SDS011;47650;49.848;9.620;2023-08-30T08:25:56;5.72;;;5.22;;
61741;SDS011;47650;49.848;9.620;2023-08-30T08:28:22;6.05;;;5.55;;
61741;SDS011;47650;49.848;9.620;2023-08-30T08:30:51;6.85;;;6.10;;
61741;SDS011;47650;49.848;9.620;2023-08-30T08:33:16;7.15;;;6.53;;
61741;SDS011;47650;49.848;9.620;2023-08-30T08:35:44;6.97;;;6.25;;
61741;SDS011;47650;49.848;9.620;2023-08-30T08:38:10;6.88;;;6.28;;
61741;SDS011;47650;49.848;9.620;2023-08-30T08:40:37;6.03;;;5.13;;
61741;SDS011;47650;49.848;9.620;2023-08-30T08:43:04;5.70;;;5.20;;
61741;SDS011;47650;49.848;9.620;2023-08-30T08:45:30;5.50;;;5.00;;
61741;SDS011;47650;49.848;9.620;2023-08-30T08:47:59;5.97;;;5.38;;
61741;SDS011;47650;49.848;9.620;2023-08-30T08:50:26;7.47;;;6.80;;
61741;SDS011;47650;49.848;9.620;2023-08-30T08:52:53;6.03;;;5.40;;
61741;SDS011;47650;49.848;9.620;2023-08-30T08:55:19;5.85;;;5.32;;
61741;SDS011;47650;49.848;9.620;2023-08-30T08:57:45;5.97;;;5.03;;
61741;SDS011;47650;49.848;9.620;2023-08-30T09:00:13;5.50;;;4.95;;
61741;SDS011;47650;49.848;9.620;2023-08-30T09:02:42;5.88;;;5.38;;
61741;SDS011;47650;49.848;9.620;2023-08-30T09:05:14;4.80;;;4.40;;
61741;SDS011;47650;49.848;9.620;2023-08-30T09:07:40;5.80;;;5.30;;
61741;SDS011;47650;49.848;9.620;2023-08-30T09:10:07;5.45;;;4.85;;
61741;SDS011;47650;49.848;9.620;2023-08-30T09:12:33;5.63;;;5.13;;
61741;SDS011;47650;49.848;9.620;2023-08-30T09:15:00;6.28;;;5.78;;
61741;SDS011;47650;49.848;9.620;2023-08-30T09:17:35;6.05;;;5.55;;
61741;SDS011;47650;49.848;9.620;2023-08-30T09:20:13;6.93;;;6.32;;
61741;SDS011;47650;49.848;9.620;2023-08-30T09:22:40;5.85;;;5.30;;
61741;SDS011;47650;49.848;9.620;2023-08-30T09:25:08;8.07;;;6.22;;
61741;SDS011;47650;49.848;9.620;2023-08-30T09:27:35;7.05;;;6.38;;
61741;SDS011;47650;49.848;9.620;2023-08-30T09:30:04;5.88;;;5.30;;
61741;SDS011;47650;49.848;9.620;2023-08-30T09:32:37;6.63;;;6.10;;
61741;SDS011;47650;49.848;9.620;2023-08-30T09:35:03;5.28;;;4.78;;
61741;SDS011;47650;49.848;9.620;2023-08-30T09:37:29;7.15;;;6.65;;
61741;SDS011;47650;49.848;9.620;2023-08-30T09:39:55;6.88;;;6.18;;
61741;SDS011;47650;49.848;9.620;2023-08-30T09:42:22;6.25;;;5.60;;
61741;SDS011;47650;49.848;9.620;2023-08-30T09:44:48;6.13;;;5.60;;
61741;SDS011;47650;49.848;9.620;2023-08-30T09:47:14;7.03;;;6.43;;
61741;SDS011;47650;49.848;9.620;2023-08-30T09:49:42;6.43;;;5.82;;
61741;SDS011;47650;49.848;9.620;2023-08-30T09:52:09;6.13;;;5.63;;
61741;SDS011;47650;49.848;9.620;2023-08-30T09:54:35;6.03;;;5.43;;
61741;SDS011;47650;49.848;9.620;2023-08-30T09:57:06;6.40;;;5.80;;
61741;SDS011;47650;49.848;9.620;2023-08-30T09:59:32;6.30;;;5.75;;
61741;SDS011;47650;49.848;9.620;2023-08-30T10:02:00;6.45;;;5.85;;
61741;SDS011;47650;49.848;9.620;2023-08-30T10:04:26;5.05;;;4.55;;
61741;SDS011;47650;49.848;9.620;2023-08-30T10:06:53;5.80;;;5.30;;
61741;SDS011;47650;49.848;9.620;2023-08-30T10:09:22;7.35;;;5.93;;
61741;SDS011;47650;49.848;9.620;2023-08-30T10:11:49;6.45;;;5.85;;
61741;SDS011;47650;49.848;9.620;2023-08-30T10:14:16;6.63;;;5.95;;
61741;SDS011;47650;49.848;9.620;2023-08-30T10:16:46;11.82;;;7.50;;
61741;SDS011;47650;49.848;9.620;2023-08-30T10:19:14;7.18;;;6.00;;
61741;SDS011;47650;49.848;9.620;2023-08-30T10:22:04;8.57;;;7.53;;
61741;SDS011;47650;49.848;9.620;2023-08-30T10:24:41;8.50;;;7.70;;
61741;SDS011;47650;49.848;9.620;2023-08-30T10:27:10;8.68;;;7.40;;
61741;SDS011;47650;49.848;9.620;2023-08-30T10:29:37;7.68;;;7.00;;
61741;SDS011;47650;49.848;9.620;2023-08-30T10:32:04;8.80;;;8.07;;
61741;SDS011;47650;49.848;9.620;2023-08-30T10:34:35;9.32;;;8.45;;
61741;SDS011;47650;49.848;9.620;2023-08-30T10:37:09;7.90;;;7.20;;
61741;SDS011;47650;49.848;9.620;2023-08-30T10:39:37;7.95;;;7.22;;
61741;SDS011;47650;49.848;9.620;2023-08-30T10:42:13;8.00;;;7.30;;
61741;SDS011;47650;49.848;9.620;2023-08-30T10:47:30;8.30;;;6.25;;
61741;SDS011;47650;49.848;9.620;2023-08-30T10:50:06;6.35;;;5.75;;
61741;SDS011;47650;49.848;9.620;2023-08-30T10:52:33;5.05;;;4.55;;
61741;SDS011;47650;49.848;9.620;2023-08-30T10:57:43;6.60;;;5.18;;
61741;SDS011;47650;49.848;9.620;2023-08-30T11:02:56;7.40;;;6.45;;
61741;SDS011;47650;49.848;9.620;2023-08-30T11:05:23;5.80;;;5.20;;
61741;SDS011;47650;49.848;9.620;2023-08-30T11:07:50;6.95;;;6.22;;
61741;SDS011;47650;49.848;9.620;2023-08-30T11:10:17;7.75;;;6.95;;
61741;SDS011;47650;49.848;9.620;2023-08-30T11:12:43;7.43;;;6.05;;
61741;SDS011;47650;49.848;9.620;2023-08-30T11:15:10;15.55;;;7.95;;
61741;SDS011;47650;49.848;9.620;2023-08-30T11:17:41;11.40;;;10.40;;
61741;SDS011;47650;49.848;9.620;2023-08-30T11:20:13;12.00;;;10.82;;
61741;SDS011;47650;49.848;9.620;2023-08-30T11:22:48;12.43;;;11.23;;
61741;SDS011;47650;49.848;9.620;2023-08-30T11:25:14;11.95;;;10.95;;
61741;SDS011;47650;49.848;9.620;2023-08-30T11:27:41;10.88;;;9.77;;
61741;SDS011;47650;49.848;9.620;2023-08-30T11:30:07;11.13;;;9.95;;
61741;SDS011;47650;49.848;9.620;2023-08-30T11:32:35;17.70;;;16.00;;
61741;SDS011;47650;49.848;9.620;2023-08-30T11:35:02;12.18;;;11.13;;
61741;SDS011;47650;49.848;9.620;2023-08-30T11:37:30;10.02;;;9.07;;
61741;SDS011;47650;49.848;9.620;2023-08-30T11:39:56;8.70;;;7.90;;
61741;SDS011;47650;49.848;9.620;2023-08-30T11:42:24;9.32;;;8.45;;
61741;SDS011;47650;49.848;9.620;2023-08-30T11:44:54;7.28;;;6.57;;
61741;SDS011;47650;49.848;9.620;2023-08-30T11:47:23;8.52;;;6.70;;
61741;SDS011;47650;49.848;9.620;2023-08-30T11:49:49;6.88;;;6.28;;
61741;SDS011;47650;49.848;9.620;2023-08-30T11:52:19;6.15;;;5.63;;
61741;SDS011;47650;49.848;9.620;2023-08-30T11:54:49;6.15;;;5.65;;
61741;SDS011;47650;49.848;9.620;2023-08-30T11:57:15;6.28;;;5.68;;
61741;SDS011;47650;49.848;9.620;2023-08-30T11:59:41;4.70;;;4.25;;
61741;SDS011;47650;49.848;9.620;2023-08-30T12:02:08;4.53;;;4.13;;
61741;SDS011;47650;49.848;9.620;2023-08-30T12:04:44;6.18;;;4.75;;
61741;SDS011;47650;49.848;9.620;2023-08-30T12:10:08;4.40;;;4.00;;
61741;SDS011;47650;49.848;9.620;2023-08-30T12:12:36;5.10;;;3.90;;
61741;SDS011;47650;49.848;9.620;2023-08-30T12:15:09;4.15;;;3.53;;
61741;SDS011;47650;49.848;9.620;2023-08-30T12:17:36;3.88;;;3.40;;
61741;SDS011;47650;49.848;9.620;2023-08-30T12:20:02;5.63;;;3.40;;
61741;SDS011;47650;49.848;9.620;2023-08-30T12:25:19;4.00;;;3.60;;
61741;SDS011;47650;49.848;9.620;2023-08-30T12:27:46;4.28;;;3.13;;
61741;SDS011;47650;49.848;9.620;2023-08-30T12:30:13;3.25;;;2.95;;
61741;SDS011;47650;49.848;9.620;2023-08-30T12:32:47;2.83;;;2.50;;
61741;SDS011;47650;49.848;9.620;2023-08-30T12:37:40;3.20;;;1.90;;
61741;SDS011;47650;49.848;9.620;2023-08-30T12:40:09;2.30;;;2.10;;
61741;SDS011;47650;49.848;9.620;2023-08-30T12:42:34;3.60;;;2.70;;
61741;SDS011;47650;49.848;9.620;2023-08-30T12:45:02;2.10;;;1.90;;
61741;SDS011;47650;49.848;9.620;2023-08-30T12:47:28;2.78;;;2.13;;
61741;SDS011;47650;49.848;9.620;2023-08-30T12:49:53;2.43;;;2.00;;
61741;SDS011;47650;49.848;9.620;2023-08-30T12:52:19;2.10;;;1.85;;
61741;SDS011;47650;49.848;9.620;2023-08-30T12:54:45;2.95;;;2.33;;
61741;SDS011;47650;49.848;9.620;2023-08-30T12:57:14;3.33;;;1.70;;
61741;SDS011;47650;49.848;9.620;2023-08-30T12:59:39;1.80;;;1.70;;
61741;SDS011;47650;49.848;9.620;2023-08-30T13:02:04;2.70;;;2.00;;
61741;SDS011;47650;49.848;9.620;2023-08-30T13:04:30;2.80;;;2.00;;
61741;SDS011;47650;49.848;9.620;2023-08-30T13:06:55;2.43;;;2.10;;
61741;SDS011;47650;49.848;9.620;2023-08-30T13:09:22;2.10;;;1.90;;
61741;SDS011;47650;49.848;9.620;2023-08-30T13:11:47;2.20;;;2.00;;
61741;SDS011;47650;49.848;9.620;2023-08-30T13:14:12;2.33;;;1.70;;
61741;SDS011;47650;49.848;9.620;2023-08-30T13:16:38;3.17;;;1.50;;
61741;SDS011;47650;49.848;9.620;2023-08-30T13:19:03;6.00;;;1.90;;
61741;SDS011;47650;49.848;9.620;2023-08-30T13:21:28;3.38;;;1.90;;
61741;SDS011;47650;49.848;9.620;2023-08-30T13:23:54;1.90;;;1.70;;
61741;SDS011;47650;49.848;9.620;2023-08-30T13:26:21;2.35;;;1.75;;
61741;SDS011;47650;49.848;9.620;2023-08-30T13:28:48;2.03;;;1.67;;
61741;SDS011;47650;49.848;9.620;2023-08-30T13:31:14;1.95;;;1.50;;
61741;SDS011;47650;49.848;9.620;2023-08-30T13:33:40;2.65;;;1.77;;
61741;SDS011;47650;49.848;9.620;2023-08-30T13:36:07;1.98;;;1.40;;
61741;SDS011;47650;49.848;9.620;2023-08-30T13:38:34;1.88;;;1.38;;
61741;SDS011;47650;49.848;9.620;2023-08-30T13:41:00;2.03;;;1.40;;
61741;SDS011;47650;49.848;9.620;2023-08-30T13:43:26;3.15;;;1.83;;
61741;SDS011;47650;49.848;9.620;2023-08-30T13:45:57;3.00;;;1.42;;
61741;SDS011;47650;49.848;9.620;2023-08-30T13:48:25;1.77;;;1.67;;
61741;SDS011;47650;49.848;9.620;2023-08-30T13:50:51;3.42;;;1.70;;
61741;SDS011;47650;49.848;9.620;2023-08-30T13:53:19;2.40;;;1.50;;
61741;SDS011;47650;49.848;9.620;2023-08-30T13:55:46;1.98;;;1.67;;
61741;SDS011;47650;49.848;9.620;2023-08-30T13:58:16;2.03;;;1.70;;
61741;SDS011;47650;49.848;9.620;2023-08-30T14:00:42;3.28;;;1.40;;
61741;SDS011;47650;49.848;9.620;2023-08-30T14:03:09;1.73;;;1.42;;
61741;SDS011;47650;49.848;9.620;2023-08-30T14:05:34;2.17;;;1.45;;
61741;SDS011;47650;49.848;9.620;2023-08-30T14:07:59;1.30;;;1.20;;
61741;SDS011;47650;49.848;9.620;2023-08-30T14:10:26;2.00;;;1.60;;
61741;SDS011;47650;49.848;9.620;2023-08-30T14:12:53;2.47;;;1.70;;
61741;SDS011;47650;49.848;9.620;2023-08-30T14:15:19;2.78;;;1.80;;
61741;SDS011;47650;49.848;9.620;2023-08-30T14:17:45;2.30;;;1.70;;
61741;SDS011;47650;49.848;9.620;2023-08-30T14:22:38;3.15;;;1.90;;
61741;SDS011;47650;49.848;9.620;2023-08-30T14:25:03;2.63;;;1.67;;
61741;SDS011;47650;49.848;9.620;2023-08-30T14:27:33;2.60;;;1.30;;
61741;SDS011;47650;49.848;9.620;2023-08-30T14:30:01;2.38;;;1.40;;
61741;SDS011;47650;49.848;9.620;2023-08-30T14:32:30;3.00;;;1.60;;
61741;SDS011;47650;49.848;9.620;2023-08-30T14:34:56;2.05;;;1.40;;
61741;SDS011;47650;49.848;9.620;2023-08-30T14:37:22;3.35;;;1.73;;
61741;SDS011;47650;49.848;9.620;2023-08-30T14:39:49;2.00;;;1.70;;
61741;SDS011;47650;49.848;9.620;2023-08-30T14:42:16;2.67;;;1.50;;
61741;SDS011;47650;49.848;9.620;2023-08-30T14:44:41;5.85;;;1.80;;
61741;SDS011;47650;49.848;9.620;2023-08-30T14:47:08;3.05;;;2.03;;
61741;SDS011;47650;49.848;9.620;2023-08-30T14:49:33;5.13;;;1.40;;
61741;SDS011;47650;49.848;9.620;2023-08-30T14:52:00;3.50;;;1.55;;
61741;SDS011;47650;49.848;9.620;2023-08-30T14:54:26;2.35;;;1.40;;
61741;SDS011;47650;49.848;9.620;2023-08-30T14:56:52;2.25;;;1.50;;
61741;SDS011;47650;49.848;9.620;2023-08-30T14:59:30;5.55;;;1.88;;
61741;SDS011;47650;49.848;9.620;2023-08-30T15:01:56;1.63;;;1.50;;